Time;durP1;ratioP1;P1;durP2;ratioP2;P2;SDS_P1;SDS_P2;PMS_P1;PMS_P2;Temp;Humidity;BMP_temperature;BMP_pressure;BME280_temperature;BME280_humidity;BME280_pressure;Samples;Min_cycle;Max_cycle;Signal;HPM_P1;HPM_P2
2022/09/11 00:02:04;;;;;;;0.45;0.43;;;22.50;58.40;;;;;;20616333;28;20039;-85
2022/09/11 00:12:06;;;;;;;1.23;0.75;;;22.40;58.40;;;;;;20650862;28;20045;-85
2022/09/11 00:22:06;;;;;;;0.82;0.63;;;22.40;58.30;;;;;;20614539;28;20045;-84
2022/09/11 00:32:07;;;;;;;0.68;0.60;;;22.40;58.30;;;;;;20629292;28;1019588;-83
2022/09/11 00:42:08;;;;;;;1.13;0.57;;;22.40;58.30;;;;;;20616553;28;20041;-84
2022/09/11 00:52:33;;;;;;;0.45;0.40;;;22.40;58.30;;;;;;20633077;28;20038;-83
2022/09/11 01:02:34;;;;;;;1.52;0.50;;;22.40;58.30;;;;;;20636010;28;20068;-87
2022/09/11 01:12:51;;;;;;;1.20;0.90;;;22.40;58.20;;;;;;20630837;28;20133;-86
2022/09/11 01:23:09;;;;;;;2.55;0.70;;;22.40;58.20;;;;;;20632580;28;20125;-85
2022/09/11 01:33:27;;;;;;;1.17;0.73;;;22.40;58.20;;;;;;21093218;23;20102;-85
2022/09/11 01:43:29;;;;;;;1.33;0.75;;;22.40;58.20;;;;;;20889563;28;20483;-85
2022/09/11 01:53:36;;;;;;;1.20;0.80;;;22.40;58.20;;;;;;20890613;28;20075;-83
2022/09/11 02:03:41;;;;;;;1.08;0.80;;;22.30;58.20;;;;;;20873671;28;20056;-85
2022/09/11 02:13:48;;;;;;;2.05;1.05;;;22.40;58.30;;;;;;20874648;28;20045;-84
2022/09/11 02:23:49;;;;;;;1.27;0.98;;;22.40;58.40;;;;;;20902886;28;20033;-84
2022/09/11 02:33:50;;;;;;;1.93;1.10;;;22.30;58.40;;;;;;20885380;28;20461;-84
2022/09/11 02:44:19;;;;;;;2.00;1.05;;;22.30;58.40;;;;;;20867793;28;20049;-85
2022/09/11 02:54:33;;;;;;;2.47;1.40;;;22.30;58.40;;;;;;20884646;28;20133;-83
2022/09/11 03:04:35;;;;;;;2.28;1.42;;;22.30;58.50;;;;;;20886079;28;20033;-83
2022/09/11 03:14:37;;;;;;;3.00;1.85;;;22.30;58.50;;;;;;20867625;28;20091;-83
2022/09/11 03:24:38;;;;;;;4.95;2.67;;;22.30;58.50;;;;;;20882251;28;20024;-82
2022/09/11 03:34:39;;;;;;;4.65;2.30;;;22.30;58.60;;;;;;20863099;28;20032;-83
2022/09/11 03:44:42;;;;;;;3.40;2.42;;;22.30;58.60;;;;;;20878749;28;20383;-82
2022/09/11 03:54:46;;;;;;;5.20;2.65;;;22.30;58.70;;;;;;20894365;28;20159;-83
2022/09/11 04:04:47;;;;;;;4.97;3.13;;;22.30;58.70;;;;;;20877708;28;20479;-84
2022/09/11 04:14:49;;;;;;;5.60;3.95;;;22.30;58.70;;;;;;20892193;28;20043;-82
2022/09/11 04:24:51;;;;;;;5.55;3.20;;;22.30;58.80;;;;;;20874713;28;20519;-82
2022/09/11 04:34:52;;;;;;;4.57;3.33;;;22.20;58.70;;;;;;20875419;28;20037;-83
2022/09/11 04:44:53;;;;;;;4.78;2.90;;;22.30;58.80;;;;;;20874211;28;20044;-83
2022/09/11 04:54:54;;;;;;;4.68;2.72;;;22.30;58.80;;;;;;20874896;28;20406;-83
2022/09/11 05:04:55;;;;;;;5.95;2.97;;;22.20;58.80;;;;;;20890254;28;20471;-83
2022/09/11 05:14:56;;;;;;;3.83;2.67;;;22.20;58.70;;;;;;20873544;28;20044;-82
2022/09/11 05:24:57;;;;;;;4.47;3.00;;;22.30;58.80;;;;;;20872885;28;20036;-82
2022/09/11 05:34:59;;;;;;;3.95;2.42;;;22.20;58.70;;;;;;20872511;28;20040;-81
2022/09/11 05:44:59;;;;;;;5.15;3.00;;;22.20;58.70;;;;;;20871694;28;20033;-81
2022/09/11 05:55:01;;;;;;;5.80;3.55;;;22.20;58.70;;;;;;20881816;28;20098;-81
2022/09/11 06:05:04;;;;;;;4.32;3.15;;;22.20;58.70;;;;;;20886166;28;20035;-82
2022/09/11 06:15:06;;;;;;;4.85;3.28;;;22.20;58.70;;;;;;20886243;28;20064;-81
2022/09/11 06:25:07;;;;;;;5.47;3.03;;;22.20;58.70;;;;;;20884305;28;20061;-81
2022/09/11 06:35:09;;;;;;;5.38;3.67;;;22.20;59.40;;;;;;20884627;28;20037;-79
2022/09/11 06:45:10;;;;;;;7.55;4.25;;;22.20;58.80;;;;;;20786975;28;20044;-75
2022/09/11 06:55:13;;;;;;;6.28;4.40;;;22.20;58.80;;;;;;20895919;28;20845;-74
2022/09/11 07:05:14;;;;;;;5.70;3.97;;;22.20;58.80;;;;;;20882136;28;20036;-78
2022/09/11 07:15:19;;;;;;;7.43;3.72;;;22.20;58.80;;;;;;20874553;28;20559;-73
2022/09/11 07:25:21;;;;;;;5.57;3.75;;;22.30;58.80;;;;;;20895128;28;20398;-74
2022/09/11 07:35:22;;;;;;;5.90;3.78;;;22.30;58.70;;;;;;20858618;28;20043;-76
2022/09/11 07:45:26;;;;;;;4.78;3.33;;;22.40;58.50;;;;;;20742100;28;20137;-77
2022/09/11 07:55:27;;;;;;;5.32;3.58;;;22.40;58.30;;;;;;20712521;28;20030;-75
2022/09/11 08:05:29;;;;;;;4.30;3.20;;;22.50;58.20;;;;;;20731574;28;20076;-75
2022/09/11 08:15:31;;;;;;;5.32;3.78;;;22.50;58.00;;;;;;20703675;28;20049;-75
2022/09/11 08:25:37;;;;;;;6.10;4.22;;;22.50;58.00;;;;;;20738733;28;20034;-74
2022/09/11 08:35:38;;;;;;;;;;;22.50;58.00;;;;;;20731968;28;20033;-73
2022/09/11 08:45:39;;;;;;;5.23;3.67;;;22.60;58.00;;;;;;20788971;28;19915;-74
2022/09/11 08:55:59;;;;;;;5.35;3.53;;;22.50;57.90;;;;;;20763746;28;20320;-73
2022/09/11 09:06:14;;;;;;;6.35;4.47;;;22.50;57.90;;;;;;20734200;28;20021;-75
2022/09/11 09:16:27;;;;;;;7.18;4.28;;;22.60;58.00;;;;;;20769788;28;20129;-74
2022/09/11 09:26:38;;;;;;;6.00;4.32;;;22.50;58.10;;;;;;20754510;28;20045;-74
2022/09/11 09:37:18;;;;;;;7.57;4.80;;;22.50;58.20;;;;;;20788514;28;20033;-75
2022/09/11 09:47:19;;;;;;;5.93;4.47;;;22.60;58.90;;;;;;20740414;28;20033;-76
2022/09/11 09:57:20;;;;;;;7.60;5.40;;;22.60;59.00;;;;;;20794219;28;20092;-74
2022/09/11 10:07:23;;;;;;;6.00;4.00;;;22.50;58.90;;;;;;20800555;28;20281;-73
2022/09/11 10:17:30;;;;;;;5.35;4.13;;;22.50;58.90;;;;;;20817154;28;20064;-75
2022/09/11 10:27:50;;;;;;;5.75;4.47;;;22.50;58.90;;;;;;20816224;28;20041;-72
2022/09/11 10:38:14;;;;;;;6.30;3.97;;;22.50;58.90;;;;;;20827014;28;20049;-72
2022/09/11 10:48:18;;;;;;;7.10;4.85;;;22.50;58.80;;;;;;20820166;28;20038;-74
2022/09/11 10:58:22;;;;;;;6.78;3.63;;;22.50;58.70;;;;;;20731514;28;20042;-74
2022/09/11 11:08:49;;;;;;;4.93;3.80;;;22.50;58.70;;;;;;20715614;28;20030;-74
2022/09/11 11:18:59;;;;;;;6.00;3.75;;;22.50;58.60;;;;;;20730283;28;20058;-71
2022/09/11 11:29:32;;;;;;;3.90;3.42;;;22.50;58.50;;;;;;20730205;28;20073;-71
2022/09/11 11:39:56;;;;;;;4.15;3.13;;;22.50;58.60;;;;;;20727769;28;20488;-73
2022/09/11 11:50:02;;;;;;;7.07;3.50;;;22.40;58.60;;;;;;20742368;28;20049;-73
2022/09/11 12:00:08;;;;;;;4.28;3.35;;;22.40;58.70;;;;;;20694721;28;20073;-74
2022/09/11 12:10:27;;;;;;;5.88;3.65;;;22.40;58.80;;;;;;20712782;28;20053;-73
2022/09/11 12:20:39;;;;;;;4.60;3.33;;;22.30;59.00;;;;;;20709657;28;20045;-73
2022/09/11 12:30:55;;;;;;;4.03;3.13;;;22.40;59.20;;;;;;20741812;28;20455;-74
2022/09/11 12:40:57;;;;;;;;;;;22.40;59.30;;;;;;20708487;28;20546;-73
2022/09/11 12:50:57;;;;;;;3.00;2.63;;;22.40;59.20;;;;;;20763597;28;20262;-73
2022/09/11 13:01:12;;;;;;;4.90;2.85;;;22.40;59.10;;;;;;20870465;28;20045;-74
2022/09/11 13:11:35;;;;;;;4.03;2.88;;;22.40;58.90;;;;;;20903781;28;20065;-73
2022/09/11 13:21:37;;;;;;;4.43;2.80;;;22.40;59.00;;;;;;20901514;28;20182;-72
2022/09/11 13:31:38;;;;;;;4.47;2.92;;;22.40;59.00;;;;;;20838863;28;20041;-74
2022/09/11 13:41:45;;;;;;;3.73;2.80;;;22.40;59.10;;;;;;20729140;28;20068;-74
2022/09/11 13:51:46;;;;;;;3.58;2.60;;;22.40;59.10;;;;;;20698104;28;20330;-75
2022/09/11 14:01:54;;;;;;;4.93;3.13;;;22.40;59.60;;;;;;20699081;28;20549;-73
2022/09/11 14:12:00;;;;;;;4.55;2.53;;;22.40;59.10;;;;;;20692703;28;20038;-73
2022/09/11 14:22:01;;;;;;;3.17;2.33;;;22.50;59.20;;;;;;20769262;28;20123;-73
2022/09/11 14:32:26;;;;;;;3.17;2.08;;;22.60;59.20;;;;;;20878863;28;20506;-71
2022/09/11 14:42:28;;;;;;;2.53;1.97;;;22.60;58.90;;;;;;20889083;28;20048;-72
2022/09/11 14:52:29;;;;;;;2.80;2.10;;;22.60;58.70;;;;;;20744914;28;20045;-72
2022/09/11 15:02:29;;;;;;;4.97;2.38;;;22.60;58.70;;;;;;20739671;28;20045;-74
2022/09/11 15:12:30;;;;;;;3.28;2.08;;;22.60;58.70;;;;;;20779097;28;20032;-73
2022/09/11 15:22:31;;;;;;;2.42;1.65;;;22.70;58.50;;;;;;20734031;28;20431;-74
2022/09/11 15:32:33;;;;;;;3.45;2.25;;;22.70;58.40;;;;;;20738702;28;20459;-74
2022/09/11 15:42:35;;;;;;;3.10;1.77;;;22.70;58.50;;;;;;20734719;28;20396;-73
2022/09/11 15:52:35;;;;;;;1.92;1.55;;;22.60;58.50;;;;;;20729950;28;20087;-75
2022/09/11 16:02:36;;;;;;;1.75;1.27;;;22.60;58.50;;;;;;20714807;28;20547;-74
2022/09/11 16:12:38;;;;;;;3.10;1.90;;;22.70;58.40;;;;;;20716061;28;20037;-71
2022/09/11 16:22:38;;;;;;;2.22;1.33;;;22.70;58.10;;;;;;20756789;28;20030;-70
2022/09/11 16:32:40;;;;;;;2.33;1.73;;;22.80;58.10;;;;;;20691222;28;20556;-70
2022/09/11 16:42:40;;;;;;;1.85;1.30;;;22.80;58.00;;;;;;20722434;28;20396;-72
2022/09/11 16:52:41;;;;;;;1.45;1.10;;;22.80;58.00;;;;;;20771951;28;20061;-70
2022/09/11 17:02:42;;;;;;;1.67;1.23;;;22.80;58.00;;;;;;20816170;28;20763;-72
2022/09/11 17:12:42;;;;;;;1.75;1.33;;;22.80;58.00;;;;;;20775762;28;20311;-72
2022/09/11 17:22:43;;;;;;;2.40;1.25;;;22.70;58.00;;;;;;20791779;28;20044;-72
2022/09/11 17:32:43;;;;;;;2.42;1.42;;;22.60;58.10;;;;;;20787409;28;20037;-74
2022/09/11 17:42:45;;;;;;;1.55;1.20;;;22.60;58.20;;;;;;20785981;28;20120;-73
2022/09/11 17:52:45;;;;;;;3.03;1.50;;;22.50;58.30;;;;;;20739942;28;20057;-72
2022/09/11 18:02:48;;;;;;;1.50;1.05;;;22.50;58.40;;;;;;20705887;28;20527;-75
2022/09/11 18:12:50;;;;;;;1.58;1.02;;;22.40;59.20;;;;;;20740368;28;20159;-74
2022/09/11 18:22:50;;;;;;;1.67;1.20;;;22.40;58.70;;;;;;20788025;28;20042;-74
2022/09/11 18:32:51;;;;;;;1.58;1.10;;;22.30;58.70;;;;;;20764431;28;20116;-78
2022/09/11 18:42:53;;;;;;;1.27;0.87;;;22.30;58.80;;;;;;20736530;28;20099;-78
2022/09/11 18:52:55;;;;;;;1.70;1.20;;;22.30;58.80;;;;;;20762288;28;20296;-77
2022/09/11 19:02:56;;;;;;;1.23;0.82;;;22.30;58.90;;;;;;20782963;28;20441;-78
2022/09/11 19:12:59;;;;;;;1.52;0.80;;;22.30;58.90;;;;;;20776551;28;20116;-78
2022/09/11 19:22:59;;;;;;;0.68;0.68;;;22.30;58.90;;;;;;20759419;28;20037;-79
2022/09/11 19:33:00;;;;;;;1.73;1.02;;;22.20;58.90;;;;;;20761484;28;20049;-77
2022/09/11 19:43:01;;;;;;;2.70;0.90;;;22.30;58.90;;;;;;20790282;28;20677;-79
2022/09/11 19:53:01;;;;;;;1.10;0.90;;;22.20;58.80;;;;;;20761381;28;20100;-72
2022/09/11 20:03:03;;;;;;;1.15;0.60;;;22.20;58.80;;;;;;20730163;28;20128;-76
2022/09/11 20:13:03;;;;;;;0.93;0.75;;;22.20;58.80;;;;;;20805361;28;20036;-77
2022/09/11 20:23:04;;;;;;;2.08;1.08;;;22.20;58.80;;;;;;20739758;28;20046;-76
2022/09/11 20:33:04;;;;;;;1.35;0.88;;;22.20;58.80;;;;;;20727391;28;20087;-77
2022/09/11 20:43:05;;;;;;;1.00;0.85;;;22.20;58.80;;;;;;20705959;28;20038;-76
2022/09/11 20:53:06;;;;;;;0.98;0.80;;;22.20;58.70;;;;;;20707942;28;20033;-77
2022/09/11 21:03:06;;;;;;;1.67;0.95;;;22.20;58.70;;;;;;20706767;28;20062;-77
2022/09/11 21:13:09;;;;;;;2.20;0.95;;;22.20;58.70;;;;;;20707121;28;20419;-76
2022/09/11 21:23:10;;;;;;;0.70;0.57;;;22.10;58.50;;;;;;20744464;28;20046;-76
2022/09/11 21:33:10;;;;;;;0.77;0.75;;;22.10;58.50;;;;;;20722873;28;20048;-77
2022/09/11 21:43:11;;;;;;;1.13;0.88;;;22.10;58.50;;;;;;20721508;28;20121;-76
2022/09/11 21:53:11;;;;;;;1.23;0.80;;;22.10;58.50;;;;;;20720733;28;20631;-76
2022/09/11 22:03:13;;;;;;;0.97;0.67;;;22.10;58.50;;;;;;20736263;28;20480;-76
2022/09/11 22:13:13;;;;;;;0.73;0.70;;;22.10;58.40;;;;;;20719666;28;20038;-77
2022/09/11 22:23:15;;;;;;;1.67;1.00;;;22.10;58.40;;;;;;20734811;28;20145;-76
2022/09/11 22:33:15;;;;;;;1.23;0.95;;;22.10;58.30;;;;;;20718788;28;20038;-76
2022/09/11 22:43:16;;;;;;;1.70;0.98;;;22.10;58.30;;;;;;20718284;28;20042;-76
2022/09/11 22:53:17;;;;;;;0.88;0.77;;;22.10;58.20;;;;;;20732585;28;20085;-76
2022/09/11 23:03:17;;;;;;;2.15;0.90;;;22.10;58.20;;;;;;20731904;28;20120;-76
2022/09/11 23:13:18;;;;;;;1.50;1.00;;;22.00;58.10;;;;;;20731185;28;20033;-76
2022/09/11 23:23:19;;;;;;;0.95;0.70;;;22.00;58.00;;;;;;20714155;28;20088;-76
2022/09/11 23:33:20;;;;;;;1.08;0.77;;;22.00;57.90;;;;;;20746429;28;20034;-76
2022/09/11 23:43:20;;;;;;;0.93;0.65;;;22.00;57.80;;;;;;20727758;28;20048;-76
2022/09/11 23:53:21;;;;;;;2.45;0.55;;;22.00;57.70;;;;;;20711903;28;20509;-76
